createdAt,value
2023-08-14T00:02:43.965Z,20.11
2023-08-14T00:05:13.436Z,20.13
2023-08-14T00:10:23.931Z,20.19
2023-08-14T00:12:59.179Z,20.21
2023-08-14T00:15:30.674Z,20.20
2023-08-14T00:17:58.394Z,20.19
2023-08-14T00:20:30.314Z,20.16
2023-08-14T00:23:03.195Z,20.15
2023-08-14T00:25:29.585Z,20.16
2023-08-14T00:28:02.001Z,20.17
2023-08-14T00:30:28.501Z,20.18
2023-08-14T00:32:57.921Z,20.18
2023-08-14T00:35:24.406Z,20.19
2023-08-14T00:37:53.947Z,20.22
2023-08-14T00:40:20.462Z,20.25
2023-08-14T00:42:51.158Z,20.28
2023-08-14T00:45:17.699Z,20.28
2023-08-14T00:47:46.576Z,20.31
2023-08-14T00:50:14.163Z,20.33
2023-08-14T00:52:40.704Z,20.38
2023-08-14T00:55:10.909Z,20.40
2023-08-14T00:57:40.300Z,20.44
2023-08-14T01:00:10.006Z,20.50
2023-08-14T01:02:36.572Z,20.53
2023-08-14T01:05:03.313Z,20.57
2023-08-14T01:07:44.907Z,20.61
2023-08-14T01:10:13.972Z,20.64
2023-08-14T01:15:27.015Z,20.68
2023-08-14T01:17:56.214Z,20.69
2023-08-14T01:20:25.434Z,20.72
2023-08-14T01:22:51.981Z,20.76
2023-08-14T01:25:25.063Z,20.77
2023-08-14T01:27:53.884Z,20.78
2023-08-14T01:30:24.072Z,20.79
2023-08-14T01:32:54.035Z,20.82
2023-08-14T01:35:26.559Z,20.84
2023-08-14T01:37:53.037Z,20.89
2023-08-14T01:40:25.923Z,20.88
2023-08-14T01:42:52.431Z,20.89
2023-08-14T01:45:18.999Z,20.89
2023-08-14T01:47:45.493Z,20.92
2023-08-14T01:50:18.411Z,20.90
2023-08-14T01:52:50.658Z,20.88
2023-08-14T01:55:20.201Z,20.90
2023-08-14T01:57:48.940Z,20.90
2023-08-14T02:00:18.435Z,20.89
2023-08-14T02:02:49.910Z,20.93
2023-08-14T02:08:00.756Z,20.96
2023-08-14T02:10:27.161Z,20.96
2023-08-14T02:12:53.371Z,20.96
2023-08-14T02:15:19.598Z,20.94
2023-08-14T02:17:45.811Z,20.92
2023-08-14T02:20:12.049Z,20.92
2023-08-14T02:22:38.240Z,20.91
2023-08-14T02:25:04.471Z,20.90
2023-08-14T02:27:30.691Z,20.89
2023-08-14T02:29:56.924Z,20.87
2023-08-14T02:32:23.160Z,20.85
2023-08-14T02:34:49.353Z,20.82
2023-08-14T02:37:15.620Z,20.80
2023-08-14T02:39:41.859Z,20.80
2023-08-14T02:42:08.091Z,20.77
2023-08-14T02:44:34.340Z,20.74
2023-08-14T02:47:00.600Z,20.71
2023-08-14T02:49:26.854Z,20.65
2023-08-14T02:51:53.117Z,20.63
2023-08-14T02:54:19.321Z,20.58
2023-08-14T02:56:45.507Z,20.54
2023-08-14T02:59:11.766Z,20.48
2023-08-14T03:01:38.002Z,20.43
2023-08-14T03:04:04.249Z,20.41
2023-08-14T03:06:30.481Z,20.34
2023-08-14T03:08:56.714Z,20.36
2023-08-14T03:11:22.918Z,20.30
2023-08-14T03:13:49.146Z,20.29
2023-08-14T03:16:15.445Z,20.29
2023-08-14T03:18:41.693Z,20.25
2023-08-14T03:21:07.903Z,20.23
2023-08-14T03:23:34.112Z,20.18
2023-08-14T03:26:00.355Z,20.12
2023-08-14T03:28:26.585Z,20.07
2023-08-14T03:30:52.840Z,20.02
2023-08-14T03:33:19.069Z,20.02
2023-08-14T03:35:45.322Z,20.03
2023-08-14T03:38:11.594Z,19.96
2023-08-14T03:40:37.793Z,19.95
2023-08-14T03:43:04.007Z,19.91
2023-08-14T03:45:30.221Z,19.85
2023-08-14T03:47:56.483Z,19.79
2023-08-14T03:50:22.717Z,19.75
2023-08-14T03:52:48.967Z,19.71
2023-08-14T03:55:15.223Z,19.68
2023-08-14T03:57:41.481Z,19.68
2023-08-14T04:00:07.761Z,19.66
2023-08-14T04:02:34.040Z,19.64
2023-08-14T04:05:00.298Z,19.65
2023-08-14T04:07:26.536Z,19.62
2023-08-14T04:09:52.718Z,19.63
2023-08-14T04:12:19.203Z,19.63
2023-08-14T04:14:45.640Z,19.65
2023-08-14T04:17:11.867Z,19.66
2023-08-14T04:19:38.113Z,19.70
2023-08-14T04:22:04.343Z,19.71
2023-08-14T04:24:30.566Z,19.70
2023-08-14T04:26:56.754Z,19.72
2023-08-14T04:29:22.983Z,19.74
2023-08-14T04:31:49.223Z,19.74
2023-08-14T04:34:17.027Z,19.76
2023-08-14T04:36:43.441Z,19.76
2023-08-14T04:39:09.648Z,19.77
2023-08-14T04:41:35.924Z,19.74
2023-08-14T04:44:02.277Z,19.80
2023-08-14T04:46:28.475Z,19.81
2023-08-14T04:48:54.701Z,19.84
2023-08-14T04:51:20.924Z,19.86
2023-08-14T04:53:47.147Z,19.89
2023-08-14T04:56:13.394Z,19.92
2023-08-14T04:58:39.632Z,19.96
2023-08-14T05:01:05.834Z,19.96
2023-08-14T05:03:32.083Z,20.03
2023-08-14T05:05:58.361Z,20.05
2023-08-14T05:08:24.597Z,20.08
2023-08-14T05:10:50.805Z,20.10
2023-08-14T05:13:16.996Z,20.12
2023-08-14T05:15:44.214Z,20.19
2023-08-14T05:18:11.684Z,20.28
2023-08-14T05:20:37.915Z,20.36
2023-08-14T05:23:04.152Z,20.42
2023-08-14T05:25:30.379Z,20.51
2023-08-14T05:27:56.578Z,20.54
2023-08-14T05:30:22.839Z,20.60
2023-08-14T05:32:49.250Z,20.66
2023-08-14T05:35:15.509Z,20.74
2023-08-14T05:37:41.794Z,20.85
2023-08-14T05:40:08.020Z,20.98
2023-08-14T05:42:34.211Z,21.14
2023-08-14T05:45:00.452Z,21.28
2023-08-14T05:47:26.737Z,21.54
2023-08-14T05:49:53.010Z,21.74
2023-08-14T05:52:19.510Z,21.98
2023-08-14T05:54:45.933Z,22.16
2023-08-14T05:57:12.169Z,22.38
2023-08-14T05:59:38.391Z,22.65
2023-08-14T06:02:04.620Z,22.78
2023-08-14T06:04:30.981Z,22.83
2023-08-14T06:06:57.217Z,22.98
2023-08-14T06:09:24.608Z,23.33
2023-08-14T06:11:50.949Z,23.62
2023-08-14T06:14:17.220Z,23.87
2023-08-14T06:16:43.524Z,24.09
2023-08-14T06:19:09.775Z,24.26
2023-08-14T06:21:36.019Z,24.44
2023-08-14T06:24:02.304Z,24.68
2023-08-14T06:26:28.543Z,24.57
2023-08-14T06:28:54.754Z,24.26
2023-08-14T06:31:20.986Z,24.05
2023-08-14T06:33:47.221Z,23.94
2023-08-14T06:36:13.854Z,24.03
2023-08-14T06:38:40.120Z,23.97
2023-08-14T06:41:06.334Z,23.86
2023-08-14T06:43:32.567Z,23.75
2023-08-14T06:45:58.806Z,23.92
2023-08-14T06:48:25.046Z,24.02
2023-08-14T06:50:51.331Z,23.93
2023-08-14T06:53:17.575Z,24.22
2023-08-14T06:55:43.810Z,24.57
2023-08-14T06:58:10.034Z,25.03
2023-08-14T07:00:36.285Z,25.15
2023-08-14T07:03:02.626Z,25.27
2023-08-14T07:05:28.886Z,25.23
2023-08-14T07:07:55.812Z,25.55
2023-08-14T07:10:22.051Z,25.87
2023-08-14T07:12:48.288Z,26.06
2023-08-14T07:15:15.517Z,26.21
2023-08-14T07:17:41.784Z,26.30
2023-08-14T07:20:10.684Z,26.28
2023-08-14T07:22:37.443Z,26.48
2023-08-14T07:25:03.908Z,26.56
2023-08-14T07:27:32.461Z,26.65
2023-08-14T07:29:58.695Z,26.56
2023-08-14T07:32:24.923Z,26.75
2023-08-14T07:34:51.362Z,26.87
2023-08-14T07:37:17.591Z,26.92
2023-08-14T07:39:43.809Z,27.09
2023-08-14T07:42:10.094Z,27.06
2023-08-14T07:44:36.280Z,27.03
2023-08-14T07:47:02.464Z,27.10
2023-08-14T07:49:28.676Z,27.12
2023-08-14T07:51:54.912Z,27.19
2023-08-14T07:54:21.153Z,27.32
2023-08-14T07:56:49.614Z,27.24
2023-08-14T07:59:17.466Z,27.12
2023-08-14T08:01:43.707Z,27.36
2023-08-14T08:04:10.064Z,27.73
2023-08-14T08:06:43.823Z,28.04
2023-08-14T08:09:12.201Z,28.00
2023-08-14T08:11:38.469Z,27.93
2023-08-14T08:14:04.714Z,28.11
2023-08-14T08:16:31.058Z,28.28
2023-08-14T08:18:57.295Z,28.45
2023-08-14T08:21:23.551Z,28.47
2023-08-14T08:23:49.928Z,28.72
2023-08-14T08:26:16.506Z,28.74
2023-08-14T08:28:42.848Z,28.76
2023-08-14T08:31:09.157Z,28.90
2023-08-14T08:33:35.426Z,28.89
2023-08-14T08:36:01.697Z,28.85
2023-08-14T08:38:27.906Z,28.88
2023-08-14T08:40:54.081Z,29.04
2023-08-14T08:43:20.301Z,29.10
2023-08-14T08:45:46.623Z,29.26
2023-08-14T08:48:15.257Z,29.09
2023-08-14T08:50:41.695Z,29.08
2023-08-14T08:53:09.924Z,29.24
2023-08-14T08:55:36.298Z,29.45
2023-08-14T08:58:02.538Z,28.99
2023-08-14T09:00:28.786Z,28.64
2023-08-14T09:02:55.172Z,28.40
2023-08-14T09:05:21.527Z,28.23
2023-08-14T09:07:49.113Z,28.16
2023-08-14T09:10:15.665Z,27.97
2023-08-14T09:12:41.872Z,28.03
2023-08-14T09:15:08.183Z,28.12
2023-08-14T09:17:34.434Z,28.50
2023-08-14T09:20:03.392Z,28.86
2023-08-14T09:22:32.233Z,28.85
2023-08-14T09:24:58.421Z,29.00
2023-08-14T09:27:25.567Z,29.29
2023-08-14T09:29:51.789Z,29.33
2023-08-14T09:32:18.262Z,29.35
2023-08-14T09:34:44.721Z,29.53
2023-08-14T09:37:10.967Z,29.85
2023-08-14T09:39:37.215Z,30.12
2023-08-14T09:42:03.443Z,30.05
2023-08-14T09:44:29.736Z,30.08
2023-08-14T09:46:56.464Z,30.08
2023-08-14T09:49:22.806Z,29.58
2023-08-14T09:51:49.068Z,29.52
2023-08-14T09:54:15.444Z,29.57
2023-08-14T09:56:41.709Z,29.94
2023-08-14T09:59:07.919Z,30.07
2023-08-14T10:01:34.210Z,30.31
2023-08-14T10:04:00.447Z,30.43
2023-08-14T10:06:26.691Z,30.33
2023-08-14T10:08:52.974Z,30.01
2023-08-14T10:11:20.174Z,30.23
2023-08-14T10:13:46.791Z,30.56
2023-08-14T10:16:13.267Z,30.49
2023-08-14T10:18:39.530Z,30.53
2023-08-14T10:21:05.822Z,30.42
2023-08-14T10:23:32.209Z,30.50
2023-08-14T10:25:58.441Z,30.39
2023-08-14T10:28:24.715Z,30.28
2023-08-14T10:30:51.254Z,30.20
2023-08-14T10:33:18.788Z,30.15
2023-08-14T10:35:45.044Z,29.97
2023-08-14T10:38:11.438Z,29.81
2023-08-14T10:40:37.768Z,29.66
2023-08-14T10:43:04.029Z,29.75
2023-08-14T10:45:30.300Z,29.93
2023-08-14T10:47:56.626Z,29.90
2023-08-14T10:50:22.885Z,29.90
2023-08-14T10:52:49.113Z,30.03
2023-08-14T10:55:15.561Z,29.94
2023-08-14T10:57:42.106Z,29.81
2023-08-14T11:00:08.402Z,29.72
2023-08-14T11:02:34.665Z,30.01
2023-08-14T11:05:00.911Z,30.37
2023-08-14T11:07:27.129Z,30.70
2023-08-14T11:09:53.557Z,30.65
2023-08-14T11:12:20.197Z,30.65
2023-08-14T11:14:46.645Z,30.67
2023-08-14T11:17:12.926Z,30.75
2023-08-14T11:19:39.204Z,30.69
2023-08-14T11:22:05.537Z,30.63
2023-08-14T11:24:31.802Z,30.58
2023-08-14T11:26:58.066Z,30.77
2023-08-14T11:29:24.455Z,30.91
2023-08-14T11:31:50.761Z,30.98
2023-08-14T11:34:17.126Z,30.92
2023-08-14T11:36:43.598Z,30.97
2023-08-14T11:39:09.959Z,31.04
2023-08-14T11:41:36.453Z,30.67
2023-08-14T11:44:02.686Z,30.83
2023-08-14T11:46:28.896Z,31.02
2023-08-14T11:48:55.139Z,31.33
2023-08-14T11:51:21.565Z,31.65
2023-08-14T11:53:48.019Z,31.61
2023-08-14T11:56:14.255Z,31.63
2023-08-14T11:58:40.625Z,32.00
2023-08-14T12:01:08.321Z,32.14
2023-08-14T12:03:34.686Z,32.06
2023-08-14T12:06:00.949Z,31.87
2023-08-14T12:08:27.181Z,31.88
2023-08-14T12:10:53.437Z,31.82
2023-08-14T12:13:19.676Z,31.59
2023-08-14T12:15:46.144Z,31.51
2023-08-14T12:18:13.709Z,31.41
2023-08-14T12:20:40.726Z,31.57
2023-08-14T12:23:07.581Z,31.57
2023-08-14T12:25:33.995Z,31.47
2023-08-14T12:28:00.244Z,31.52
2023-08-14T12:30:26.510Z,31.77
2023-08-14T12:32:52.898Z,31.77
2023-08-14T12:35:19.454Z,31.44
2023-08-14T12:37:45.660Z,31.76
2023-08-14T12:40:12.066Z,31.70
2023-08-14T12:42:38.348Z,31.62
2023-08-14T12:45:04.634Z,31.30
2023-08-14T12:47:30.982Z,30.99
2023-08-14T12:49:57.273Z,30.78
2023-08-14T12:52:23.530Z,30.62
2023-08-14T12:54:50.269Z,30.71
2023-08-14T12:57:30.588Z,30.71
2023-08-14T12:59:56.845Z,30.71
2023-08-14T13:02:25.020Z,30.65
2023-08-14T13:04:53.684Z,30.53
2023-08-14T13:07:22.344Z,30.42
2023-08-14T13:09:48.528Z,30.28
2023-08-14T13:12:14.753Z,30.37
2023-08-14T13:14:41.032Z,30.38
2023-08-14T13:17:07.259Z,30.47
2023-08-14T13:19:33.513Z,30.67
2023-08-14T13:21:59.768Z,30.70
2023-08-14T13:24:26.010Z,30.75
2023-08-14T13:26:52.265Z,30.51
2023-08-14T13:29:18.492Z,30.27
2023-08-14T13:31:44.735Z,30.04
2023-08-14T13:34:10.928Z,29.88
2023-08-14T13:36:37.122Z,29.69
2023-08-14T13:39:03.452Z,29.47
2023-08-14T13:41:29.666Z,29.47
2023-08-14T13:43:55.886Z,29.50
2023-08-14T13:46:22.106Z,29.55
2023-08-14T13:48:48.375Z,29.64
2023-08-14T13:51:14.616Z,29.61
2023-08-14T13:53:40.825Z,29.55
2023-08-14T13:56:07.027Z,29.45
2023-08-14T13:58:33.287Z,29.27
2023-08-14T14:01:02.843Z,29.08
2023-08-14T14:03:29.538Z,28.99
2023-08-14T14:05:55.868Z,28.81
2023-08-14T14:08:22.116Z,28.60
2023-08-14T14:10:48.351Z,28.44
2023-08-14T14:13:14.683Z,28.36
2023-08-14T14:15:41.745Z,28.27
2023-08-14T14:18:08.072Z,28.30
2023-08-14T14:20:35.300Z,28.41
2023-08-14T14:23:01.528Z,28.56
2023-08-14T14:25:27.758Z,28.71
2023-08-14T14:27:53.961Z,28.70
2023-08-14T14:30:20.212Z,28.71
2023-08-14T14:32:46.445Z,28.63
2023-08-14T14:35:12.687Z,28.65
2023-08-14T14:37:38.889Z,28.66
2023-08-14T14:40:05.088Z,28.70
2023-08-14T14:42:31.376Z,28.68
2023-08-14T14:44:57.630Z,28.67
2023-08-14T14:47:24.347Z,28.72
2023-08-14T14:49:51.046Z,28.82
2023-08-14T14:52:17.253Z,28.73
2023-08-14T14:54:43.434Z,28.72
2023-08-14T14:57:09.668Z,28.75
2023-08-14T14:59:35.897Z,28.65
2023-08-14T15:02:09.271Z,28.66
2023-08-14T15:04:41.961Z,28.57
2023-08-14T15:07:08.191Z,28.55
2023-08-14T15:09:34.379Z,28.45
2023-08-14T15:12:00.611Z,28.33
2023-08-14T15:14:26.858Z,28.22
2023-08-14T15:16:53.059Z,28.31
2023-08-14T15:19:19.259Z,28.41
2023-08-14T15:21:45.450Z,28.60
2023-08-14T15:24:11.664Z,28.70
2023-08-14T15:26:37.879Z,28.88
2023-08-14T15:29:04.063Z,29.07
2023-08-14T15:31:30.279Z,29.39
2023-08-14T15:33:56.466Z,29.63
2023-08-14T15:36:22.717Z,29.66
2023-08-14T15:38:48.946Z,29.77
2023-08-14T15:41:15.146Z,30.54
2023-08-14T15:43:41.383Z,31.05
2023-08-14T15:46:07.748Z,31.00
2023-08-14T15:48:33.993Z,30.68
2023-08-14T15:51:00.196Z,30.37
2023-08-14T15:53:26.410Z,30.50
2023-08-14T15:55:52.592Z,30.69
2023-08-14T15:58:18.801Z,31.34
2023-08-14T16:00:45.119Z,31.74
2023-08-14T16:03:11.509Z,32.31
2023-08-14T16:05:37.773Z,32.07
2023-08-14T16:08:04.063Z,31.76
2023-08-14T16:10:30.305Z,31.33
2023-08-14T16:12:56.493Z,31.03
2023-08-14T16:15:22.680Z,31.20
2023-08-14T16:17:49.011Z,31.51
2023-08-14T16:20:15.258Z,31.91
2023-08-14T16:22:41.479Z,31.49
2023-08-14T16:25:07.723Z,30.97
2023-08-14T16:27:33.968Z,31.18
2023-08-14T16:30:00.224Z,31.30
2023-08-14T16:32:26.530Z,31.46
2023-08-14T16:34:52.789Z,31.60
2023-08-14T16:37:19.660Z,31.79
2023-08-14T16:39:46.140Z,31.43
2023-08-14T16:42:12.349Z,31.19
2023-08-14T16:44:38.595Z,30.86
2023-08-14T16:47:07.715Z,30.59
2023-08-14T16:49:33.924Z,30.16
2023-08-14T16:52:00.216Z,29.84
2023-08-14T16:54:26.457Z,29.54
2023-08-14T16:56:52.663Z,29.34
2023-08-14T16:59:19.615Z,29.17
2023-08-14T17:01:45.974Z,28.95
2023-08-14T17:04:12.244Z,28.86
2023-08-14T17:06:38.548Z,28.73
2023-08-14T17:09:04.813Z,28.62
2023-08-14T17:11:31.111Z,28.66
2023-08-14T17:13:57.391Z,28.62
2023-08-14T17:16:23.688Z,28.58
2023-08-14T17:18:49.977Z,28.44
2023-08-14T17:21:16.229Z,28.31
2023-08-14T17:23:42.536Z,28.21
2023-08-14T17:26:08.778Z,28.13
2023-08-14T17:28:35.008Z,28.09
2023-08-14T17:31:01.290Z,28.05
2023-08-14T17:33:27.538Z,28.00
2023-08-14T17:35:53.854Z,27.96
2023-08-14T17:38:20.246Z,27.90
2023-08-14T17:40:46.573Z,27.77
2023-08-14T17:43:12.803Z,27.74
2023-08-14T17:45:39.223Z,27.71
2023-08-14T17:48:05.576Z,27.68
2023-08-14T17:50:31.813Z,27.64
2023-08-14T17:52:58.124Z,27.59
2023-08-14T17:55:24.388Z,27.61
2023-08-14T17:57:50.792Z,27.58
2023-08-14T18:00:17.069Z,27.48
2023-08-14T18:02:43.391Z,27.46
2023-08-14T18:05:09.843Z,27.43
2023-08-14T18:07:36.141Z,27.38
2023-08-14T18:10:02.369Z,27.29
2023-08-14T18:12:28.677Z,27.25
2023-08-14T18:14:54.889Z,27.17
2023-08-14T18:17:21.295Z,27.07
2023-08-14T18:19:47.788Z,26.99
2023-08-14T18:22:13.970Z,26.89
2023-08-14T18:24:40.307Z,26.85
2023-08-14T18:27:06.608Z,26.76
2023-08-14T18:29:33.070Z,26.68
2023-08-14T18:31:59.350Z,26.61
2023-08-14T18:34:25.671Z,26.51
2023-08-14T18:36:51.944Z,26.43
2023-08-14T18:39:18.241Z,26.36
2023-08-14T18:41:44.532Z,26.21
2023-08-14T18:44:13.912Z,26.12
2023-08-14T18:46:40.262Z,26.03
2023-08-14T18:49:06.595Z,25.90
2023-08-14T18:51:32.845Z,25.81
2023-08-14T18:53:59.522Z,25.75
2023-08-14T18:56:25.789Z,25.68
2023-08-14T18:58:52.035Z,25.54
2023-08-14T19:01:18.297Z,25.45
2023-08-14T19:03:44.615Z,25.34
2023-08-14T19:06:10.910Z,25.19
2023-08-14T19:08:37.184Z,25.13
2023-08-14T19:11:03.475Z,25.02
2023-08-14T19:13:29.760Z,24.92
2023-08-14T19:15:56.179Z,24.85
2023-08-14T19:18:22.461Z,24.78
2023-08-14T19:20:48.693Z,24.77
2023-08-14T19:23:14.954Z,24.72
2023-08-14T19:28:20.979Z,24.59
2023-08-14T19:30:48.589Z,24.58
2023-08-14T19:33:14.948Z,24.50
2023-08-14T19:35:41.273Z,24.42
2023-08-14T19:38:07.668Z,24.37
2023-08-14T19:40:33.954Z,24.35
2023-08-14T19:43:00.173Z,24.25
2023-08-14T19:45:26.386Z,24.19
2023-08-14T19:47:52.729Z,24.19
2023-08-14T19:50:19.072Z,24.15
2023-08-14T19:52:45.352Z,24.15
2023-08-14T19:55:11.675Z,24.11
2023-08-14T19:57:37.903Z,24.06
2023-08-14T20:00:04.122Z,24.01
2023-08-14T20:02:30.367Z,24.00
2023-08-14T20:04:56.535Z,23.97
2023-08-14T20:07:22.724Z,23.93
2023-08-14T20:09:49.053Z,23.83
2023-08-14T20:12:15.273Z,23.76
2023-08-14T20:14:41.517Z,23.73
2023-08-14T20:17:07.819Z,23.66
2023-08-14T20:19:34.056Z,23.63
2023-08-14T20:22:00.255Z,23.61
2023-08-14T20:24:26.480Z,23.59
2023-08-14T20:26:52.713Z,23.54
2023-08-14T20:29:18.963Z,23.48
2023-08-14T20:31:45.205Z,23.44
2023-08-14T20:34:11.451Z,23.40
2023-08-14T20:36:37.686Z,23.37
2023-08-14T20:39:03.920Z,23.37
2023-08-14T20:41:30.128Z,23.32
2023-08-14T20:43:56.345Z,23.26
2023-08-14T20:46:22.611Z,23.21
2023-08-14T20:48:48.829Z,23.15
2023-08-14T20:51:15.120Z,23.12
2023-08-14T20:53:41.368Z,23.15
2023-08-14T20:56:07.558Z,23.14
2023-08-14T20:58:33.743Z,23.13
2023-08-14T21:00:59.971Z,23.10
2023-08-14T21:03:26.324Z,23.10
2023-08-14T21:05:52.652Z,23.09
2023-08-14T21:08:18.917Z,23.08
2023-08-14T21:10:45.182Z,23.04
2023-08-14T21:13:11.479Z,23.00
2023-08-14T21:15:37.697Z,22.99
2023-08-14T21:18:03.972Z,22.98
2023-08-14T21:20:30.224Z,22.95
2023-08-14T21:22:56.455Z,22.92
2023-08-14T21:25:22.684Z,22.92
2023-08-14T21:27:48.880Z,22.87
2023-08-14T21:30:15.184Z,22.89
2023-08-14T21:32:41.401Z,22.87
2023-08-14T21:35:07.632Z,22.86
2023-08-14T21:37:33.821Z,22.86
2023-08-14T21:40:00.035Z,22.84
2023-08-14T21:42:26.267Z,22.80
2023-08-14T21:44:52.492Z,22.78
2023-08-14T21:47:19.175Z,22.74
2023-08-14T21:49:45.654Z,22.71
2023-08-14T21:52:11.944Z,22.69
2023-08-14T21:54:38.219Z,22.65
2023-08-14T21:57:04.453Z,22.61
2023-08-14T21:59:30.714Z,22.60
2023-08-14T22:01:56.948Z,22.59
2023-08-14T22:04:23.211Z,22.55
2023-08-14T22:06:49.505Z,22.52
2023-08-14T22:09:15.727Z,22.49
2023-08-14T22:11:41.973Z,22.45
2023-08-14T22:14:08.224Z,22.41
2023-08-14T22:16:34.487Z,22.36
2023-08-14T22:19:00.701Z,22.33
2023-08-14T22:21:26.929Z,22.33
2023-08-14T22:23:53.158Z,22.29
2023-08-14T22:26:19.351Z,22.25
2023-08-14T22:28:45.602Z,22.21
2023-08-14T22:31:11.861Z,22.17
2023-08-14T22:33:38.038Z,22.16
2023-08-14T22:36:04.438Z,22.14
2023-08-14T22:38:30.650Z,22.07
2023-08-14T22:40:56.842Z,22.03
2023-08-14T22:43:23.078Z,22.01
2023-08-14T22:48:16.412Z,21.98
2023-08-14T22:50:42.630Z,21.95
2023-08-14T22:53:08.850Z,21.94
2023-08-14T22:55:35.073Z,21.92
2023-08-14T22:58:01.311Z,21.92
2023-08-14T23:00:27.505Z,21.90
2023-08-14T23:02:53.781Z,21.88
2023-08-14T23:05:20.016Z,21.86
2023-08-14T23:07:46.280Z,21.85
2023-08-14T23:10:12.504Z,21.83
2023-08-14T23:12:38.680Z,21.79
2023-08-14T23:15:04.868Z,21.77
2023-08-14T23:17:31.133Z,21.71
2023-08-14T23:19:57.381Z,21.68
2023-08-14T23:22:23.588Z,21.66
2023-08-14T23:24:49.844Z,21.64
2023-08-14T23:27:16.087Z,21.59
2023-08-14T23:29:42.392Z,21.54
2023-08-14T23:32:08.611Z,21.56
2023-08-14T23:34:34.806Z,21.56
2023-08-14T23:37:00.980Z,21.55
2023-08-14T23:39:27.179Z,21.57
2023-08-14T23:41:53.385Z,21.54
2023-08-14T23:44:19.568Z,21.52
2023-08-14T23:46:45.797Z,21.47
2023-08-14T23:49:12.319Z,21.47
2023-08-14T23:51:38.568Z,21.44
2023-08-14T23:54:04.775Z,21.44
2023-08-14T23:56:30.955Z,21.38
2023-08-14T23:58:57.136Z,21.36
